Time;durP1;ratioP1;P1;durP2;ratioP2;P2;SDS_P1;SDS_P2;PMS_P1;PMS_P2;Temp;Humidity;BMP_temperature;BMP_pressure;BME280_temperature;BME280_humidity;BME280_pressure;Samples;Min_cycle;Max_cycle;Signal;HPM_P1;HPM_P2
2022/01/03 00:00:50;;;;;;;;;;;8.90;99.90;;;;;;5136409;27;19966;-77
2022/01/03 00:03:17;;;;;;;;;;;8.90;99.90;;;;;;5148144;27;19908;-76
2022/01/03 00:05:42;;;;;;;;;;;8.90;99.90;;;;;;5145894;27;20271;-76
2022/01/03 00:08:08;;;;;;;;;;;8.90;99.90;;;;;;5128370;27;19907;-76
2022/01/03 00:10:34;;;;;;;;;;;8.80;99.90;;;;;;5144944;27;19907;-77
2022/01/03 00:13:00;;;;;;;;;;;8.80;99.90;;;;;;5145797;27;19907;-77
2022/01/03 00:15:26;;;;;;;;;;;8.80;99.90;;;;;;5151507;27;19953;-76
2022/01/03 00:17:53;;;;;;;;;;;8.80;99.90;;;;;;5147308;27;19946;-79
2022/01/03 00:20:19;;;;;;;;;;;8.80;99.90;;;;;;5141432;27;19921;-78
2022/01/03 00:23:04;;;;;;;;;;;8.80;99.90;;;;;;5118194;27;19912;-78
2022/01/03 00:25:31;;;;;;;;;;;8.80;99.90;;;;;;5136247;27;19907;-78
2022/01/03 00:27:57;;;;;;;;;;;8.90;99.90;;;;;;5135186;27;19908;-78
2022/01/03 00:30:24;;;;;;;;;;;8.90;99.90;;;;;;5136322;27;20356;-78
2022/01/03 00:32:51;;;;;;;;;;;8.90;99.90;;;;;;5117626;27;19907;-78
2022/01/03 00:35:17;;;;;;;;;;;8.90;99.90;;;;;;5135664;27;19907;-78
2022/01/03 00:37:45;;;;;;;;;;;8.90;99.90;;;;;;5135966;27;19919;-79
2022/01/03 00:40:11;;;;;;;;;;;8.90;99.90;;;;;;5135205;27;20493;-77
2022/01/03 00:42:37;;;;;;;;;;;8.90;99.90;;;;;;5135596;27;19994;-78
2022/01/03 00:45:03;;;;;;;;;;;8.90;99.90;;;;;;5116889;27;20036;-78
2022/01/03 00:47:32;;;;;;;;;;;8.90;99.90;;;;;;5136068;27;20720;-77
2022/01/03 00:49:58;;;;;;;;;;;8.90;99.90;;;;;;5135161;27;19911;-78
2022/01/03 00:52:23;;;;;;;;;;;8.90;99.90;;;;;;5135504;27;19914;-77
2022/01/03 00:54:49;;;;;;;;;;;8.90;99.90;;;;;;5135505;27;19998;-78
2022/01/03 00:57:22;;;;;;;;;;;8.90;99.90;;;;;;5134535;27;19923;-78
2022/01/03 00:59:54;;;;;;;;;;;8.90;99.90;;;;;;5139036;27;19919;-78
2022/01/03 01:02:20;;;;;;;;;;;8.80;99.90;;;;;;5155404;27;19911;-76
2022/01/03 01:04:46;;;;;;;;;;;8.80;99.90;;;;;;5155064;27;19989;-77
2022/01/03 01:07:12;;;;;;;;;;;8.80;99.90;;;;;;5154879;27;19949;-76
2022/01/03 01:09:37;;;;;;;;;;;8.80;99.90;;;;;;5155629;27;19913;-76
2022/01/03 01:12:05;;;;;;;;;;;8.80;99.90;;;;;;5153997;27;19934;-77
2022/01/03 01:14:31;;;;;;;;;;;8.80;99.90;;;;;;5136978;27;19914;-76
2022/01/03 01:16:56;;;;;;;;;;;8.80;99.90;;;;;;5154678;27;19915;-77
2022/01/03 01:19:22;;;;;;;;;;;8.70;99.90;;;;;;5155669;27;20283;-76
2022/01/03 01:21:49;;;;;;;;;;;8.70;99.90;;;;;;5136867;27;20370;-76
2022/01/03 01:24:15;;;;;;;;;;;8.60;99.90;;;;;;5154602;27;19910;-76
2022/01/03 01:29:26;;;;;;;;;;;8.60;99.90;;;;;;5155493;27;19914;-77
2022/01/03 01:31:53;;;;;;;;;;;8.70;99.90;;;;;;5155102;27;19907;-77
2022/01/03 01:34:26;;;;;;;;;;;8.70;99.90;;;;;;5155083;27;19907;-76
2022/01/03 01:36:53;;;;;;;;;;;8.60;99.90;;;;;;5154988;27;20017;-76
2022/01/03 01:39:20;;;;;;;;;;;8.60;99.90;;;;;;5135845;27;19907;-76
2022/01/03 01:41:46;;;;;;;;;;;8.70;99.90;;;;;;5136628;27;19930;-76
2022/01/03 01:44:11;;;;;;;;;;;8.70;99.90;;;;;;5154654;27;19911;-76
2022/01/03 01:46:46;;;;;;;;;;;8.60;99.90;;;;;;5154916;27;19975;-77
2022/01/03 01:49:14;;;;;;;;;;;8.60;99.90;;;;;;5135101;27;20411;-77
2022/01/03 01:51:43;;;;;;;;;;;8.60;99.90;;;;;;5154608;27;19907;-77
2022/01/03 01:54:11;;;;;;;;;;;8.60;99.90;;;;;;5153991;27;20390;-76
2022/01/03 01:56:55;;;;;;;;;;;8.60;99.90;;;;;;5154604;27;19915;-76
2022/01/03 01:59:31;;;;;;;;;;;8.60;99.90;;;;;;5103812;27;2042543;-75
2022/01/03 02:01:56;;;;;;;;;;;8.70;99.90;;;;;;5155546;27;19915;-77
2022/01/03 02:04:33;;;;;;;;;;;8.60;99.90;;;;;;5155441;27;19919;-77
2022/01/03 02:07:06;;;;;;;;;;;8.60;99.90;;;;;;5156951;27;19907;-77
2022/01/03 02:09:37;;;;;;;;;;;8.60;99.90;;;;;;5179120;27;19921;-77
2022/01/03 02:12:05;;;;;;;;;;;8.60;99.90;;;;;;5178245;27;19907;-78
2022/01/03 02:14:36;;;;;;;;;;;8.60;99.90;;;;;;5162253;27;19907;-76
2022/01/03 02:17:02;;;;;;;;;;;8.60;99.90;;;;;;5154449;27;20026;-76
2022/01/03 02:19:28;;;;;;;;;;;8.50;99.90;;;;;;5155107;27;19907;-77
2022/01/03 02:21:53;;;;;;;;;;;8.50;99.90;;;;;;5155480;27;19914;-77
2022/01/03 02:24:19;;;;;;;;;;;8.60;99.90;;;;;;5153807;27;19960;-77
2022/01/03 02:26:45;;;;;;;;;;;8.60;99.90;;;;;;5135262;27;19912;-77
2022/01/03 02:29:10;;;;;;;;;;;8.50;99.90;;;;;;5133691;27;19915;-77
2022/01/03 02:31:36;;;;;;;;;;;8.50;99.90;;;;;;5115804;27;19938;-77
2022/01/03 02:34:03;;;;;;;;;;;8.50;99.90;;;;;;5133742;27;19956;-77
2022/01/03 02:36:30;;;;;;;;;;;8.60;99.90;;;;;;5134302;27;19915;-77
2022/01/03 02:38:56;;;;;;;;;;;8.50;99.90;;;;;;5134005;27;19907;-77
2022/01/03 02:41:22;;;;;;;;;;;8.50;99.90;;;;;;5133428;27;19933;-77
2022/01/03 02:43:49;;;;;;;;;;;8.50;99.90;;;;;;5134288;27;20356;-78
2022/01/03 02:46:14;;;;;;;;;;;8.50;99.90;;;;;;5133847;27;19907;-77
2022/01/03 02:48:40;;;;;;;;;;;8.50;99.90;;;;;;5134174;27;20375;-77
2022/01/03 02:51:06;;;;;;;;;;;8.40;99.90;;;;;;5133411;27;19908;-77
2022/01/03 02:53:31;;;;;;;;;;;8.40;99.90;;;;;;5133905;27;20396;-77
2022/01/03 02:55:57;;;;;;;;;;;8.40;99.90;;;;;;5133709;27;20360;-77
2022/01/03 02:58:22;;;;;;;;;;;8.50;99.90;;;;;;5133254;27;19907;-76
2022/01/03 03:00:49;;;;;;;;;;;8.40;99.90;;;;;;5146046;27;19971;-78
2022/01/03 03:03:16;;;;;;;;;;;8.40;99.90;;;;;;5135359;27;19919;-76
2022/01/03 03:05:42;;;;;;;;;;;8.40;99.90;;;;;;5154617;27;19911;-76
2022/01/03 03:08:07;;;;;;;;;;;8.40;99.90;;;;;;5153488;27;19959;-76
2022/01/03 03:10:33;;;;;;;;;;;8.40;99.90;;;;;;5154263;27;19907;-76
2022/01/03 03:12:59;;;;;;;;;;;8.40;99.90;;;;;;5154460;27;19907;-76
2022/01/03 03:15:24;;;;;;;;;;;8.40;99.90;;;;;;5135110;27;19969;-76
2022/01/03 03:17:50;;;;;;;;;;;8.40;99.90;;;;;;5154447;27;19953;-76
2022/01/03 03:20:18;;;;;;;;;;;8.40;99.90;;;;;;5153665;27;19907;-76
2022/01/03 03:22:43;;;;;;;;;;;8.40;99.90;;;;;;5154394;27;19987;-76
2022/01/03 03:25:14;;;;;;;;;;;8.40;99.90;;;;;;5153553;27;19932;-76
2022/01/03 03:27:44;;;;;;;;;;;8.40;99.90;;;;;;5153865;27;19911;-76
2022/01/03 03:30:11;;;;;;;;;;;8.40;99.90;;;;;;5153338;27;19951;-76
2022/01/03 03:32:37;;;;;;;;;;;8.40;99.90;;;;;;5154084;27;20279;-76
2022/01/03 03:35:03;;;;;;;;;;;8.40;99.90;;;;;;5154078;27;20002;-77
2022/01/03 03:37:28;;;;;;;;;;;8.40;99.90;;;;;;5152433;27;20373;-77
2022/01/03 03:39:54;;;;;;;;;;;8.40;99.90;;;;;;5153919;27;19934;-77
2022/01/03 03:42:19;;;;;;;;;;;8.50;99.90;;;;;;5153397;27;19908;-77
2022/01/03 03:44:45;;;;;;;;;;;8.50;99.90;;;;;;5154133;27;20338;-77
2022/01/03 03:47:11;;;;;;;;;;;8.50;99.90;;;;;;5169051;27;19895;-76
2022/01/03 03:49:36;;;;;;;;;;;8.50;99.90;;;;;;5179360;27;19946;-77
2022/01/03 03:52:02;;;;;;;;;;;8.50;99.90;;;;;;5177913;27;19915;-77
2022/01/03 03:54:28;;;;;;;;;;;8.50;99.90;;;;;;5163189;27;19922;-77
2022/01/03 03:56:54;;;;;;;;;;;8.50;99.90;;;;;;5154074;27;19919;-77
2022/01/03 03:59:19;;;;;;;;;;;8.50;99.90;;;;;;5152978;27;19907;-77
2022/01/03 04:01:45;;;;;;;;;;;8.50;99.90;;;;;;5154237;27;20312;-77
2022/01/03 04:04:11;;;;;;;;;;;8.40;99.90;;;;;;5153123;27;20006;-77
2022/01/03 04:06:36;;;;;;;;;;;8.40;99.90;;;;;;5153930;27;20010;-77
2022/01/03 04:09:02;;;;;;;;;;;8.40;99.90;;;;;;5153630;27;19915;-77
2022/01/03 04:11:28;;;;;;;;;;;8.40;99.90;;;;;;5153098;27;20644;-77
2022/01/03 04:13:53;;;;;;;;;;;8.40;99.90;;;;;;5133416;27;19912;-76
2022/01/03 04:16:19;;;;;;;;;;;8.40;99.90;;;;;;5132314;28;19915;-76
2022/01/03 04:18:45;;;;;;;;;;;8.30;99.90;;;;;;5133140;28;19981;-76
2022/01/03 04:21:11;;;;;;;;;;;8.30;99.90;;;;;;5132608;28;20292;-76
2022/01/03 04:23:36;;;;;;;;;;;8.30;99.90;;;;;;5132860;28;19908;-76
2022/01/03 04:26:04;;;;;;;;;;;8.30;99.90;;;;;;5132962;28;20352;-76
2022/01/03 04:28:29;;;;;;;;;;;8.20;99.90;;;;;;5132220;28;19908;-76
2022/01/03 04:30:55;;;;;;;;;;;8.30;99.90;;;;;;5132870;28;19998;-77
2022/01/03 04:33:21;;;;;;;;;;;8.20;99.90;;;;;;5132284;28;19958;-77
2022/01/03 04:35:46;;;;;;;;;;;8.20;99.90;;;;;;5133001;28;20383;-77
2022/01/03 04:38:12;;;;;;;;;;;8.20;99.90;;;;;;5132200;28;19960;-77
2022/01/03 04:40:37;;;;;;;;;;;8.30;99.90;;;;;;5134734;27;20387;-77
2022/01/03 04:43:03;;;;;;;;;;;8.20;99.90;;;;;;5137112;27;19908;-77
2022/01/03 04:45:29;;;;;;;;;;;8.30;99.90;;;;;;5135831;27;20450;-77
2022/01/03 04:47:55;;;;;;;;;;;8.30;99.90;;;;;;5136390;27;19912;-77
2022/01/03 04:50:20;;;;;;;;;;;8.30;99.90;;;;;;5117339;27;19955;-77
2022/01/03 04:52:46;;;;;;;;;;;8.30;99.90;;;;;;5118311;27;19935;-77
2022/01/03 04:55:11;;;;;;;;;;;8.30;99.90;;;;;;5135417;27;19911;-77
2022/01/03 04:57:37;;;;;;;;;;;8.30;99.90;;;;;;5118047;27;19915;-76
2022/01/03 05:00:04;;;;;;;;;;;8.30;99.90;;;;;;5136153;27;19958;-76
2022/01/03 05:02:29;;;;;;;;;;;8.40;99.90;;;;;;5135864;27;20440;-76
2022/01/03 05:04:55;;;;;;;;;;;8.30;99.90;;;;;;5136076;27;19998;-76
2022/01/03 05:07:21;;;;;;;;;;;8.30;99.90;;;;;;5135263;27;19960;-77
2022/01/03 05:09:46;;;;;;;;;;;8.40;99.90;;;;;;5136059;27;20379;-76
2022/01/03 05:12:12;;;;;;;;;;;8.40;99.90;;;;;;5135585;27;20047;-76
2022/01/03 05:14:38;;;;;;;;;;;8.40;99.90;;;;;;5135958;27;19907;-76
2022/01/03 05:17:04;;;;;;;;;;;8.40;99.90;;;;;;5135946;27;20322;-76
2022/01/03 05:19:29;;;;;;;;;;;8.40;99.90;;;;;;5135323;27;19914;-76
2022/01/03 05:21:55;;;;;;;;;;;8.40;99.90;;;;;;5135998;27;19929;-76
2022/01/03 05:24:20;;;;;;;;;;;8.40;99.90;;;;;;5134890;27;19943;-76
2022/01/03 05:26:46;;;;;;;;;;;8.40;99.90;;;;;;5135393;27;20344;-76
2022/01/03 05:29:12;;;;;;;;;;;8.40;99.90;;;;;;5135456;27;19911;-76
2022/01/03 05:31:37;;;;;;;;;;;8.40;99.90;;;;;;5135651;27;19908;-76
2022/01/03 05:34:03;;;;;;;;;;;8.40;99.90;;;;;;5135561;27;19949;-76
2022/01/03 05:36:28;;;;;;;;;;;8.40;99.90;;;;;;5135011;27;20287;-76
2022/01/03 05:38:54;;;;;;;;;;;8.40;99.90;;;;;;5135557;27;19915;-76
2022/01/03 05:41:19;;;;;;;;;;;8.40;99.90;;;;;;5134692;27;19907;-76
2022/01/03 05:43:45;;;;;;;;;;;8.40;99.90;;;;;;5135549;27;19911;-76
2022/01/03 05:46:11;;;;;;;;;;;8.30;99.90;;;;;;5135752;27;19954;-76
2022/01/03 05:48:37;;;;;;;;;;;8.30;99.90;;;;;;5134752;27;19907;-76
2022/01/03 05:51:03;;;;;;;;;;;8.40;99.90;;;;;;5134654;27;19908;-76
2022/01/03 05:53:30;;;;;;;;;;;8.30;99.90;;;;;;5134360;27;20051;-76
2022/01/03 05:55:56;;;;;;;;;;;8.30;99.90;;;;;;5134731;27;19907;-77
2022/01/03 05:58:22;;;;;;;;;;;8.30;99.90;;;;;;5134549;27;19911;-77
2022/01/03 06:00:48;;;;;;;;;;;8.30;99.90;;;;;;5134778;27;19919;-77
2022/01/03 06:03:14;;;;;;;;;;;8.30;99.90;;;;;;5134872;27;19960;-76
2022/01/03 06:05:53;;;;;;;;;;;8.40;99.90;;;;;;5135190;27;19957;-76
2022/01/03 06:08:19;;;;;;;;;;;8.30;99.90;;;;;;5117997;27;19911;-76
2022/01/03 06:10:44;;;;;;;;;;;8.30;99.90;;;;;;5134513;27;19929;-76
2022/01/03 06:13:10;;;;;;;;;;;8.40;99.90;;;;;;5134977;27;19915;-76
2022/01/03 06:15:36;;;;;;;;;;;8.30;99.90;;;;;;5115570;27;20508;-76
2022/01/03 06:18:03;;;;;;;;;;;8.30;99.90;;;;;;5134808;27;19919;-76
2022/01/03 06:20:29;;;;;;;;;;;8.30;99.90;;;;;;5133964;27;19907;-76
2022/01/03 06:22:55;;;;;;;;;;;8.40;99.90;;;;;;5134656;27;19907;-77
2022/01/03 06:25:20;;;;;;;;;;;8.40;99.90;;;;;;5155629;27;19966;-75
2022/01/03 06:27:46;;;;;;;;;;;8.40;99.90;;;;;;5157661;27;19960;-76
2022/01/03 06:30:12;;;;;;;;;;;8.40;99.90;;;;;;5138234;27;20395;-76
2022/01/03 06:32:37;;;;;;;;;;;8.40;99.90;;;;;;5133838;27;19963;-77
2022/01/03 06:35:03;;;;;;;;;;;8.40;99.90;;;;;;5116215;27;19956;-77
2022/01/03 06:37:29;;;;;;;;;;;8.40;99.90;;;;;;5132700;27;20307;-76
2022/01/03 06:39:55;;;;;;;;;;;8.50;99.90;;;;;;5155193;27;19907;-76
2022/01/03 06:42:20;;;;;;;;;;;8.50;99.90;;;;;;5135568;27;19908;-76
2022/01/03 06:44:48;;;;;;;;;;;8.50;99.90;;;;;;5136526;27;19918;-77
2022/01/03 06:47:14;;;;;;;;;;;8.50;99.90;;;;;;5155212;27;19995;-77
2022/01/03 06:49:39;;;;;;;;;;;8.50;99.90;;;;;;5154135;27;19971;-76
2022/01/03 06:52:05;;;;;;;;;;;8.50;99.90;;;;;;5154917;27;19907;-76
2022/01/03 06:54:33;;;;;;;;;;;8.50;99.90;;;;;;5135228;27;20010;-76
2022/01/03 06:56:58;;;;;;;;;;;8.50;99.90;;;;;;5154658;27;19915;-76
2022/01/03 06:59:24;;;;;;;;;;;8.40;99.90;;;;;;5153916;27;20316;-76
2022/01/03 07:01:50;;;;;;;;;;;8.40;99.90;;;;;;5154984;27;19952;-76
2022/01/03 07:04:16;;;;;;;;;;;8.50;99.90;;;;;;5154326;27;19914;-76
2022/01/03 07:06:41;;;;;;;;;;;8.50;99.90;;;;;;5153501;27;19921;-76
2022/01/03 07:09:07;;;;;;;;;;;8.50;99.90;;;;;;5154349;27;19953;-76
2022/01/03 07:11:33;;;;;;;;;;;8.40;99.90;;;;;;5152955;27;19907;-76
2022/01/03 07:19:27;;;;;;;;;;;8.40;99.90;;;;;;5153403;27;19914;-76
2022/01/03 07:21:52;;;;;;;;;;;8.50;99.90;;;;;;5136283;27;19907;-76
2022/01/03 07:24:18;;;;;;;;;;;8.50;99.90;;;;;;5153921;27;19967;-76
2022/01/03 07:26:44;;;;;;;;;;;8.60;99.90;;;;;;5154054;27;19956;-77
2022/01/03 07:29:09;;;;;;;;;;;8.60;99.90;;;;;;5154164;27;20259;-77
2022/01/03 07:31:35;;;;;;;;;;;8.60;99.90;;;;;;5153193;27;19910;-77
2022/01/03 07:34:00;;;;;;;;;;;8.70;99.90;;;;;;5135056;27;20256;-76
2022/01/03 07:36:27;;;;;;;;;;;8.60;99.90;;;;;;5153172;27;19916;-76
2022/01/03 07:38:53;;;;;;;;;;;8.60;99.90;;;;;;5154078;27;19954;-76
2022/01/03 07:41:19;;;;;;;;;;;8.60;99.90;;;;;;5154094;27;20295;-76
2022/01/03 07:43:45;;;;;;;;;;;8.60;99.90;;;;;;5153672;27;19951;-76
2022/01/03 07:46:10;;;;;;;;;;;8.50;99.90;;;;;;5154132;27;19907;-76
2022/01/03 07:48:36;;;;;;;;;;;8.50;99.90;;;;;;5142986;27;19952;-76
2022/01/03 07:51:02;;;;;;;;;;;8.50;99.90;;;;;;5133272;28;19934;-76
2022/01/03 07:53:28;;;;;;;;;;;8.40;99.90;;;;;;5132572;28;19945;-76
2022/01/03 07:55:54;;;;;;;;;;;8.40;99.90;;;;;;5133122;28;19911;-76
2022/01/03 07:58:20;;;;;;;;;;;8.40;99.90;;;;;;5133212;28;20015;-76
2022/01/03 08:00:46;;;;;;;;;;;8.40;99.90;;;;;;5132340;28;20344;-76
2022/01/03 08:03:11;;;;;;;;;;;8.50;99.90;;;;;;5133547;28;20006;-77
2022/01/03 08:05:37;;;;;;;;;;;8.50;99.90;;;;;;5133574;28;20328;-76
2022/01/03 08:08:03;;;;;;;;;;;8.50;99.90;;;;;;5133418;28;20249;-75
2022/01/03 08:10:29;;;;;;;;;;;8.50;99.90;;;;;;5132327;28;19908;-76
2022/01/03 08:12:54;;;;;;;;;;;8.50;99.90;;;;;;5133050;28;19994;-76
2022/01/03 08:15:21;;;;;;;;;;;8.50;99.90;;;;;;5116096;27;19955;-75
2022/01/03 08:17:46;;;;;;;;;;;8.50;99.90;;;;;;5117820;27;19919;-75
2022/01/03 08:20:12;;;;;;;;;;;8.50;99.90;;;;;;5137002;27;19934;-75
2022/01/03 08:22:38;;;;;;;;;;;8.40;99.90;;;;;;5136100;27;19907;-77
2022/01/03 08:25:04;;;;;;;;;;;8.40;99.90;;;;;;5136643;27;19965;-76
2022/01/03 08:27:29;;;;;;;;;;;8.40;99.90;;;;;;5136258;27;20344;-76
2022/01/03 08:29:55;;;;;;;;;;;8.30;99.90;;;;;;5136861;27;19908;-76
2022/01/03 08:32:20;;;;;;;;;;;8.30;99.90;;;;;;5136915;27;19998;-76
2022/01/03 08:34:46;;;;;;;;;;;8.30;99.90;;;;;;5153022;27;20673;-79
2022/01/03 08:37:11;;;;;;;;;;;8.30;99.90;;;;;;5157494;27;20052;-77
2022/01/03 08:39:37;;;;;;;;;;;8.30;99.90;;;;;;5157133;27;19914;-79
2022/01/03 08:42:03;;;;;;;;;;;8.40;99.90;;;;;;5157500;27;20423;-77
2022/01/03 08:44:29;;;;;;;;;;;8.40;99.90;;;;;;5156379;27;19914;-77
2022/01/03 08:46:54;;;;;;;;;;;8.40;99.90;;;;;;5157437;27;19907;-77
2022/01/03 08:49:20;;;;;;;;;;;8.40;99.90;;;;;;5157105;27;19911;-77
2022/01/03 08:51:45;;;;;;;;;;;8.40;99.90;;;;;;5147457;27;19960;-77
2022/01/03 08:54:11;;;;;;;;;;;8.30;99.90;;;;;;5151020;27;19921;-76
2022/01/03 08:56:37;;;;;;;;;;;8.30;99.90;;;;;;5146462;27;20264;-75
2022/01/03 08:59:03;;;;;;;;;;;8.30;99.90;;;;;;5154764;27;19907;-75
2022/01/03 09:01:28;;;;;;;;;;;8.30;99.90;;;;;;5155538;27;20372;-76
2022/01/03 09:03:54;;;;;;;;;;;8.40;99.90;;;;;;5157140;27;19907;-76
2022/01/03 09:06:20;;;;;;;;;;;8.40;99.90;;;;;;5157020;27;19914;-76
2022/01/03 09:08:46;;;;;;;;;;;8.40;99.90;;;;;;5156668;27;20520;-76
2022/01/03 09:11:12;;;;;;;;;;;8.40;99.90;;;;;;5156841;27;19911;-76
2022/01/03 09:13:37;;;;;;;;;;;8.40;99.90;;;;;;5146652;27;19919;-76
2022/01/03 09:16:07;;;;;;;;;;;8.50;99.90;;;;;;5145372;27;19908;-76
2022/01/03 09:18:37;;;;;;;;;;;8.50;99.90;;;;;;5130930;27;20324;-76
2022/01/03 09:21:03;;;;;;;;;;;8.50;99.90;;;;;;5144054;27;20359;-76
2022/01/03 09:23:32;;;;;;;;;;;8.50;99.90;;;;;;5143427;27;19967;-76
2022/01/03 09:28:57;;;;;;;;;;;8.60;99.90;;;;;;5146268;27;19919;-75
2022/01/03 09:31:27;;;;;;;;;;;8.60;99.90;;;;;;5141089;27;20275;-76
2022/01/03 09:33:54;;;;;;;;;;;8.60;99.90;;;;;;5135244;27;20012;-76
2022/01/03 09:36:21;;;;;;;;;;;8.70;99.90;;;;;;5135220;27;19919;-75
2022/01/03 09:38:47;;;;;;;;;;;8.70;99.90;;;;;;5116502;27;19922;-76
2022/01/03 09:41:13;;;;;;;;;;;8.70;99.90;;;;;;5135788;27;19907;-76
2022/01/03 09:43:48;;;;;;;;;;;8.70;99.90;;;;;;5134239;27;19911;-76
2022/01/03 09:46:18;;;;;;;;;;;8.80;99.90;;;;;;5117234;27;20389;-76
2022/01/03 09:48:51;;;;;;;;;;;8.80;99.90;;;;;;5116576;27;20007;-76
2022/01/03 09:51:17;;;;;;;;;;;8.80;99.90;;;;;;5134888;27;19919;-76
2022/01/03 09:53:43;;;;;;;;;;;8.80;99.90;;;;;;5134329;27;19907;-76
2022/01/03 09:56:09;;;;;;;;;;;8.80;99.90;;;;;;5134908;27;19916;-76
2022/01/03 09:58:34;;;;;;;;;;;8.80;99.90;;;;;;5135582;27;19961;-76
2022/01/03 10:01:00;;;;;;;;;;;8.80;99.90;;;;;;5132745;27;19970;-75
2022/01/03 10:03:27;;;;;;;;;;;8.70;99.90;;;;;;5143488;27;19911;-76
2022/01/03 10:05:52;;;;;;;;;;;8.80;99.90;;;;;;5145999;27;20226;-77
2022/01/03 10:08:18;;;;;;;;;;;8.80;99.90;;;;;;5139257;27;20412;-76
2022/01/03 10:10:44;;;;;;;;;;;8.70;99.90;;;;;;5133857;27;20371;-76
2022/01/03 10:13:11;;;;;;;;;;;8.80;99.90;;;;;;5135682;27;20259;-77
2022/01/03 10:15:36;;;;;;;;;;;8.70;99.90;;;;;;5143079;27;20260;-77
2022/01/03 10:18:02;;;;;;;;;;;8.70;99.90;;;;;;5150453;27;19926;-76
2022/01/03 10:20:29;;;;;;;;;;;8.80;99.90;;;;;;5152524;27;19930;-76
2022/01/03 10:23:07;;;;;;;;;;;8.80;99.90;;;;;;5154782;27;19954;-76
2022/01/03 10:25:34;;;;;;;;;;;8.70;99.90;;;;;;5145247;27;19954;-76
2022/01/03 10:28:00;;;;;;;;;;;8.70;99.90;;;;;;5123786;27;20370;-76
2022/01/03 10:30:35;;;;;;;;;;;8.70;99.90;;;;;;5151861;27;19946;-75
2022/01/03 10:33:03;;;;;;;;;;;8.80;99.90;;;;;;5155253;27;19908;-76
2022/01/03 10:35:34;;;;;;;;;;;8.80;99.90;;;;;;5136984;27;19908;-77
2022/01/03 10:37:59;;;;;;;;;;;8.80;99.90;;;;;;5154103;27;19922;-77
2022/01/03 10:40:28;;;;;;;;;;;8.80;99.90;;;;;;5154542;27;19907;-75
2022/01/03 10:42:54;;;;;;;;;;;8.80;99.90;;;;;;5143607;27;19907;-76
2022/01/03 10:45:30;;;;;;;;;;;8.90;99.90;;;;;;5144619;27;20395;-76
2022/01/03 10:47:56;;;;;;;;;;;8.90;99.90;;;;;;5133767;27;20018;-77
2022/01/03 10:50:22;;;;;;;;;;;8.90;99.90;;;;;;5152715;27;20327;-77
2022/01/03 10:52:49;;;;;;;;;;;8.90;99.90;;;;;;5153881;27;20320;-77
2022/01/03 10:55:33;;;;;;;;;;;9.00;99.90;;;;;;5154787;27;19911;-77
2022/01/03 10:58:04;;;;;;;;;;;9.00;99.90;;;;;;5153964;27;19919;-77
2022/01/03 11:00:31;;;;;;;;;;;9.00;99.90;;;;;;5154237;27;19919;-77
2022/01/03 11:03:10;;;;;;;;;;;9.00;99.90;;;;;;5135463;27;20794;-77
2022/01/03 11:05:40;;;;;;;;;;;9.10;99.90;;;;;;5153955;27;19914;-76
2022/01/03 11:10:44;;;;;;;;;;;9.10;99.90;;;;;;5154537;27;19915;-75
2022/01/03 11:13:14;;;;;;;;;;;9.10;99.90;;;;;;5154542;27;20343;-77
2022/01/03 11:15:41;;;;;;;;;;;9.00;99.90;;;;;;5153667;27;19907;-76
2022/01/03 11:18:07;;;;;;;;;;;9.00;99.90;;;;;;5135384;27;20324;-76
2022/01/03 11:20:33;;;;;;;;;;;9.00;99.90;;;;;;5154051;27;20363;-76
2022/01/03 11:22:59;;;;;;;;;;;9.00;99.90;;;;;;5153599;27;19963;-76
2022/01/03 11:25:29;;;;;;;;;;;9.00;99.90;;;;;;5154479;27;19911;-76
2022/01/03 11:27:55;;;;;;;;;;;9.10;99.90;;;;;;5153556;27;19911;-78
2022/01/03 11:30:20;;;;;;;;;;;9.10;99.90;;;;;;5154703;27;20308;-77
2022/01/03 11:32:49;;;;;;;;;;;9.10;99.90;;;;;;5153165;27;19911;-76
2022/01/03 11:35:14;;;;;;;;;;;9.10;99.90;;;;;;5153579;27;19914;-76
2022/01/03 11:37:41;;;;;;;;;;;9.10;99.90;;;;;;5153380;27;19915;-77
2022/01/03 11:40:08;;;;;;;;;;;9.10;99.90;;;;;;5154344;27;19907;-77
2022/01/03 11:42:34;;;;;;;;;;;9.10;99.90;;;;;;5154090;27;19907;-77
2022/01/03 11:45:00;;;;;;;;;;;9.10;99.90;;;;;;5153168;27;19914;-77
2022/01/03 11:47:29;;;;;;;;;;;9.10;99.90;;;;;;5153510;27;19907;-77
2022/01/03 11:49:54;;;;;;;;;;;9.20;99.90;;;;;;5156164;27;19907;-76
2022/01/03 11:52:20;;;;;;;;;;;9.20;99.90;;;;;;5158622;27;19907;-77
2022/01/03 11:54:46;;;;;;;;;;;9.30;99.90;;;;;;5156992;27;20261;-77
2022/01/03 11:57:25;;;;;;;;;;;9.40;99.90;;;;;;5158320;27;19930;-77
2022/01/03 12:05:42;;;;;;;;;;;9.60;99.90;;;;;;5136173;27;19919;-77
2022/01/03 12:08:19;;;;;;;;;;;9.60;99.90;;;;;;5136632;27;19911;-77
2022/01/03 12:10:45;;;;;;;;;;;9.60;99.90;;;;;;5136230;27;19907;-77
2022/01/03 12:13:11;;;;;;;;;;;9.60;99.90;;;;;;5136640;27;19907;-76
2022/01/03 12:15:39;;;;;;;;;;;9.60;99.90;;;;;;5136445;27;19959;-76
2022/01/03 12:18:24;;;;;;;;;;;9.60;99.90;;;;;;5136293;27;20022;-77
2022/01/03 12:20:50;;;;;;;;;;;9.60;99.90;;;;;;5135547;27;19908;-77
2022/01/03 12:23:34;;;;;;;;;;;9.70;99.90;;;;;;5139170;27;19926;-76
2022/01/03 12:26:13;;;;;;;;;;;9.80;99.90;;;;;;5137919;27;20002;-76
2022/01/03 12:29:14;;;;;;;;;;;9.90;99.90;;;;;;5157039;27;19934;-77
2022/01/03 12:31:58;;;;;;;;;;;10.00;99.90;;;;;;5052231;28;19909;-77
2022/01/03 12:34:23;;;;;;;;;;;10.00;99.90;;;;;;5147501;27;20424;-77
2022/01/03 12:37:08;;;;;;;;;;;10.00;99.90;;;;;;5155796;27;19916;-76
2022/01/03 12:39:53;;;;;;;;;;;10.00;99.90;;;;;;5157706;27;19907;-76
2022/01/03 12:42:38;;;;;;;;;;;10.10;99.90;;;;;;5157439;27;20010;-77
2022/01/03 12:45:04;;;;;;;;;;;10.20;99.90;;;;;;5156698;27;19910;-76
2022/01/03 12:47:36;;;;;;;;;;;10.20;99.90;;;;;;5156972;27;20387;-77
2022/01/03 12:50:18;;;;;;;;;;;10.20;99.90;;;;;;5156640;27;19903;-77
2022/01/03 12:52:44;;;;;;;;;;;10.20;99.90;;;;;;5138320;27;19968;-77
2022/01/03 12:55:09;;;;;;;;;;;10.20;99.90;;;;;;5157367;27;20355;-77
2022/01/03 12:57:35;;;;;;;;;;;10.10;99.90;;;;;;5156382;27;19957;-77
2022/01/03 13:00:02;;;;;;;;;;;10.00;99.90;;;;;;5155598;27;19914;-76
2022/01/03 13:02:29;;;;;;;;;;;10.00;99.90;;;;;;5156123;27;19911;-76
2022/01/03 13:04:55;;;;;;;;;;;10.00;99.90;;;;;;5155973;27;19942;-76
2022/01/03 13:07:24;;;;;;;;;;;10.00;99.90;;;;;;5156297;27;20389;-76
2022/01/03 13:09:49;;;;;;;;;;;10.00;99.90;;;;;;5155828;27;19907;-76
2022/01/03 13:12:15;;;;;;;;;;;10.10;99.90;;;;;;5156819;27;19907;-77
2022/01/03 13:14:40;;;;;;;;;;;10.10;99.90;;;;;;5156737;27;19907;-77
2022/01/03 13:17:06;;;;;;;;;;;10.10;99.90;;;;;;5155289;27;19915;-76
2022/01/03 13:19:33;;;;;;;;;;;10.20;99.90;;;;;;5146667;27;20375;-76
2022/01/03 13:22:01;;;;;;;;;;;10.10;99.90;;;;;;5144202;27;20248;-77
2022/01/03 13:24:33;;;;;;;;;;;10.10;99.90;;;;;;5147549;27;19908;-77
2022/01/03 13:27:09;;;;;;;;;;;10.20;99.90;;;;;;5142399;27;19908;-77
2022/01/03 13:29:39;;;;;;;;;;;10.10;99.90;;;;;;5145242;27;19987;-77
2022/01/03 13:32:06;;;;;;;;;;;10.20;99.90;;;;;;5137349;27;19944;-77
2022/01/03 13:34:32;;;;;;;;;;;10.30;99.90;;;;;;5143987;27;19918;-77
2022/01/03 13:37:03;;;;;;;;;;;10.30;99.90;;;;;;5146381;27;19919;-77
2022/01/03 13:39:30;;;;;;;;;;;10.30;99.90;;;;;;5125939;27;19908;-78
2022/01/03 13:42:01;;;;;;;;;;;10.30;99.90;;;;;;5142648;27;19908;-77
2022/01/03 13:49:58;;;;;;;;;;;10.20;99.90;;;;;;5145242;27;19969;-76
2022/01/03 13:52:28;;;;;;;;;;;10.20;99.90;;;;;;5144235;27;19936;-76
2022/01/03 13:54:59;;;;;;;;;;;10.00;99.90;;;;;;5145906;27;19911;-76
2022/01/03 13:57:25;;;;;;;;;;;10.00;99.90;;;;;;5143673;27;19916;-77
2022/01/03 13:59:50;;;;;;;;;;;9.90;99.90;;;;;;5151406;27;19915;-76
2022/01/03 14:02:18;;;;;;;;;;;9.80;99.90;;;;;;5143519;27;19926;-77
2022/01/03 14:04:43;;;;;;;;;;;9.80;99.90;;;;;;5144908;27;19915;-75
2022/01/03 14:07:10;;;;;;;;;;;9.80;99.90;;;;;;5145129;27;19983;-77
2022/01/03 14:09:45;;;;;;;;;;;9.80;99.90;;;;;;5134369;27;20352;-76
2022/01/03 14:12:17;;;;;;;;;;;9.80;99.90;;;;;;5133119;27;19908;-77
2022/01/03 14:14:48;;;;;;;;;;;9.80;99.90;;;;;;5134389;27;20280;-75
2022/01/03 14:17:14;;;;;;;;;;;9.90;99.90;;;;;;5135123;27;19960;-76
2022/01/03 14:19:41;;;;;;;;;;;10.00;99.90;;;;;;5134746;27;19908;-76
2022/01/03 14:22:09;;;;;;;;;;;10.00;99.90;;;;;;5133882;27;19964;-77
2022/01/03 14:24:34;;;;;;;;;;;10.10;99.90;;;;;;5134644;27;19915;-77
2022/01/03 14:27:00;;;;;;;;;;;10.10;99.90;;;;;;5133957;27;19907;-77
2022/01/03 14:29:33;;;;;;;;;;;10.00;99.90;;;;;;5134498;27;20336;-77
2022/01/03 14:31:59;;;;;;;;;;;10.00;99.90;;;;;;5133907;27;19947;-77
2022/01/03 14:34:29;;;;;;;;;;;10.00;99.90;;;;;;5134416;27;19907;-77
2022/01/03 14:36:56;;;;;;;;;;;10.00;99.90;;;;;;5133615;27;19919;-76
2022/01/03 14:39:22;;;;;;;;;;;10.10;99.90;;;;;;5134027;27;19908;-76
2022/01/03 14:41:58;;;;;;;;;;;10.10;99.90;;;;;;5134154;27;19943;-76
2022/01/03 14:44:25;;;;;;;;;;;10.10;99.90;;;;;;5134233;27;19998;-76
2022/01/03 14:46:59;;;;;;;;;;;10.10;99.90;;;;;;5133698;27;19908;-77
2022/01/03 14:49:24;;;;;;;;;;;10.10;99.90;;;;;;5134283;27;19908;-76
2022/01/03 14:51:50;;;;;;;;;;;10.10;99.90;;;;;;5133638;27;19908;-77
2022/01/03 14:54:16;;;;;;;;;;;10.10;99.90;;;;;;5133771;27;19907;-77